Terminal Aerodrome Forecast
Issued by NWS Charleston, WV

Current Version | Previous Version | Graphics & Text | Print | Product List | Glossary On
Versions: 1 2 3 4 5 6 7 8 9 10 11 12 13 14 15 16 17 18 19 20 21 22 23 24 25 26 27 28 29 30
330
FTUS41 KRLX 280846 AAD
TAFCRW
TAF AMD
KCRW 280846Z 2809/2906 19006KT 6SM BR SCT001 BKN080
     FM281300 10005KT 6SM BR BKN090
     FM281500 22005KT P6SM VCTS OVC035CB
     FM281800 25004KT 3SM TSRA BR OVC025CB
     FM282300 VRB03KT 4SM TSRA BR OVC020CB=

USA.gov is the U.S. government's official web portal to all federal, state and local government web resources and services.